Orbital elements of ARABSAT-1A
| Launched | 7 February 1985 |
| Flight ended | – |
| Launch site | Europe's Spaceport, Kourou, French Guiana |
| Owner | Arab Satellite Communications Organization |
| NORAD ID | 15560 |
| Date fetched |
Epoch osculation |
Inc. [°] |
Ecc. | RA asc node [hr] |
Arg Peri. [°] |
Mean anom [°] |
Mean motion [rev/day] |
Abs. mag |
| Date fetched |
Epoch osculation |
Inc. [°] |
Ecc. | RA asc node [hr] |
Arg Peri. [°] |
Mean anom [°] |
Mean motion [rev/day] |
Abs. mag |
| 2026 May 06 17:57 | 2026 May 05 01:36:26 | 11.8912 | 0.00287 | 22.1037 | 237.6907 | 122.4660 | 1.00149 | 5.500 |
| 2026 May 05 17:57 | 2026 May 05 01:36:26 | 11.8912 | 0.00287 | 22.1037 | 237.6907 | 122.4660 | 1.00149 | 5.500 |
| 2026 May 04 17:57 | 2026 Apr 30 13:54:38 | 11.8967 | 0.00287 | 22.1056 | 237.8078 | 122.4660 | 1.00149 | 5.500 |
| 2026 May 03 17:57 | 2026 Apr 30 13:54:38 | 11.8967 | 0.00287 | 22.1056 | 237.8078 | 122.4660 | 1.00149 | 5.500 |
| 2026 May 02 17:57 | 2026 Apr 30 13:54:38 | 11.8967 | 0.00287 | 22.1056 | 237.8078 | 122.4660 | 1.00149 | 5.500 |
| 2026 May 01 17:56 | 2026 Apr 30 13:54:38 | 11.8967 | 0.00287 | 22.1056 | 237.8078 | 122.4660 | 1.00149 | 5.500 |
| 2026 Apr 30 17:56 | 2026 Apr 30 13:54:38 | 11.8967 | 0.00287 | 22.1056 | 237.8078 | 122.4660 | 1.00149 | 5.500 |
| 2026 Apr 29 17:57 | 2026 Apr 24 02:05:59 | 11.9045 | 0.00286 | 22.1084 | 237.9686 | 122.4660 | 1.00149 | 5.500 |
| 2026 Apr 28 17:56 | 2026 Apr 24 02:05:59 | 11.9045 | 0.00286 | 22.1084 | 237.9686 | 122.4660 | 1.00149 | 5.500 |
| 2026 Apr 27 17:58 | 2026 Apr 24 02:05:59 | 11.9045 | 0.00286 | 22.1084 | 237.9686 | 122.4660 | 1.00149 | 5.500 |
| 2026 Apr 26 17:58 | 2026 Apr 24 02:05:59 | 11.9045 | 0.00286 | 22.1084 | 237.9686 | 122.4660 | 1.00149 | 5.500 |
| 2026 Apr 25 17:58 | 2026 Apr 24 02:05:59 | 11.9045 | 0.00286 | 22.1084 | 237.9686 | 122.4660 | 1.00149 | 5.500 |
| 2026 Apr 24 17:59 | 2026 Apr 24 02:05:59 | 11.9045 | 0.00286 | 22.1084 | 237.9686 | 122.4660 | 1.00149 | 5.500 |
| 2026 Apr 23 17:57 | 2026 Apr 19 02:29:14 | 11.9103 | 0.00286 | 22.1106 | 238.2975 | 122.4660 | 1.00149 | 5.500 |
| 2026 Apr 22 17:57 | 2026 Apr 19 02:29:14 | 11.9103 | 0.00286 | 22.1106 | 238.2975 | 122.4660 | 1.00149 | 5.500 |
| 2026 Apr 21 17:57 | 2026 Apr 19 02:29:14 | 11.9103 | 0.00286 | 22.1106 | 238.2975 | 122.4660 | 1.00149 | 5.500 |
| 2026 Apr 20 17:57 | 2026 Apr 19 02:29:14 | 11.9103 | 0.00286 | 22.1106 | 238.2975 | 122.4660 | 1.00149 | 5.500 |
| 2026 Apr 19 17:58 | 2026 Apr 19 02:29:14 | 11.9103 | 0.00286 | 22.1106 | 238.2975 | 122.4660 | 1.00149 | 5.500 |
| 2026 Apr 18 17:56 | 2026 Apr 12 14:27:20 | 11.9179 | 0.00287 | 22.1134 | 238.8793 | 122.4660 | 1.00149 | 5.500 |
| 2026 Apr 16 17:57 | 2026 Apr 12 14:27:20 | 11.9179 | 0.00287 | 22.1134 | 238.8793 | 122.4660 | 1.00149 | 5.500 |
| 2026 Apr 14 17:57 | 2026 Apr 12 14:27:20 | 11.9179 | 0.00287 | 22.1134 | 238.8793 | 122.4660 | 1.00149 | 5.500 |
| 2026 Apr 13 17:57 | 2026 Apr 12 14:27:20 | 11.9179 | 0.00287 | 22.1134 | 238.8793 | 122.4660 | 1.00149 | 5.500 |
| 2026 Apr 12 17:57 | 2026 Apr 07 14:49:55 | 11.9238 | 0.00288 | 22.1156 | 239.2375 | 122.4660 | 1.00149 | 5.500 |
| 2026 Apr 11 17:57 | 2026 Apr 07 14:49:55 | 11.9238 | 0.00288 | 22.1156 | 239.2375 | 122.4660 | 1.00149 | 5.500 |
| 2026 Apr 10 17:58 | 2026 Apr 07 14:49:55 | 11.9238 | 0.00288 | 22.1156 | 239.2375 | 122.4660 | 1.00149 | 5.500 |
| 2026 Apr 09 18:01 | 2026 Apr 07 14:49:55 | 11.9238 | 0.00288 | 22.1156 | 239.2375 | 122.4660 | 1.00149 | 5.500 |